Terminal Aerodrome Forecast
Issued by NWS

Home | Current Version | Previous Version | Text Only | Print | Product List | Glossary Off
Versions: 1 2 3 4 5 6 7 8 9 10 11 12 13 14 15 16 17 18 19 20 21 22 23 24

000
FTUS43 KGRB 291948 AAB
TAFAUW
TAF AMD
KAUW 291948Z 2920/3018 27006KT P6SM VCSH SCT035 BKN080
      TEMPO 2921/3001 30015G28KT 3SM TS BR BKN025CB
     FM300800 VRB04KT 4SM BR VCSH SCT010 BKN035
      TEMPO 3010/3013 2SM BR BKN009
     FM301400 35007KT P6SM SCT015 BKN040=

USA.gov is the U.S. government's official web portal to all federal, state and local government web resources and services.